Terminal Aerodrome Forecast
Issued by NWS

Home | Current Version | Previous Version | Text Only | Print | Product List | Glossary On
Versions: 1 2 3 4 5 6 7 8 9 10 11 12 13 14
555
FTUS43 KJKL 281131
TAFSME
TAF
KSME 281131Z 2812/0112 VRB03KT P6SM VCSH BKN060
     FM281500 18008KT P6SM -SHRA OVC025
     FM281900 19010KT P6SM VCSH OVC020
     FM282200 20010G18KT P6SM OVC015
     FM010300 19010KT P6SM OVC015 WS020/21040KT
     FM010600 20010G18KT P6SM OVC025=

USA.gov is the U.S. government's official web portal to all federal, state and local government web resources and services.